createdAt,value
2016-07-04T00:00:45.888Z,23.44
2016-07-04T00:01:45.892Z,23.4
2016-07-04T00:02:45.925Z,23.42
2016-07-04T00:03:45.918Z,23.41
2016-07-04T00:04:45.914Z,23.35
2016-07-04T00:05:45.955Z,23.37
2016-07-04T00:06:45.934Z,23.38
2016-07-04T00:07:45.954Z,23.42
2016-07-04T00:08:45.975Z,23.42
2016-07-04T00:09:45.963Z,23.41
2016-07-04T00:10:45.964Z,23.34
2016-07-04T00:11:46.004Z,23.34
2016-07-04T00:12:46.004Z,23.35
2016-07-04T00:13:46.019Z,23.35
2016-07-04T00:14:46.027Z,23.41
2016-07-04T00:15:46.056Z,23.29
2016-07-04T00:16:46.051Z,23.37
2016-07-04T00:17:46.053Z,23.38
2016-07-04T00:18:46.042Z,23.34
2016-07-04T00:19:46.064Z,23.37
2016-07-04T00:20:46.055Z,23.37
2016-07-04T00:21:46.100Z,23.34
2016-07-04T00:22:46.092Z,23.32
2016-07-04T00:23:46.093Z,23.34
2016-07-04T00:24:46.103Z,23.34
2016-07-04T00:25:46.182Z,23.34
2016-07-04T00:26:46.142Z,23.38
2016-07-04T00:27:46.133Z,23.38
2016-07-04T00:28:46.143Z,23.29
2016-07-04T00:29:46.168Z,23.34
2016-07-04T00:30:46.151Z,23.35
2016-07-04T00:31:46.178Z,23.44
2016-07-04T00:32:46.186Z,23.41
2016-07-04T00:33:46.181Z,23.34
2016-07-04T00:34:46.193Z,23.38
2016-07-04T00:35:46.218Z,23.34
2016-07-04T00:36:46.230Z,23.35
2016-07-04T00:37:46.223Z,23.35
2016-07-04T00:38:46.241Z,23.35
2016-07-04T00:39:46.263Z,23.34
2016-07-04T00:40:46.243Z,23.37
2016-07-04T00:41:46.245Z,23.37
2016-07-04T00:42:46.264Z,23.35
2016-07-04T00:43:46.274Z,23.41
2016-07-04T00:44:46.285Z,23.34
2016-07-04T00:45:46.282Z,23.32
2016-07-04T00:46:46.317Z,23.38
2016-07-04T00:47:46.323Z,23.32
2016-07-04T00:48:46.316Z,23.38
2016-07-04T00:49:46.338Z,23.37
2016-07-04T00:50:46.363Z,23.35
2016-07-04T00:51:46.369Z,23.35
2016-07-04T00:52:46.358Z,23.35
2016-07-04T00:53:46.351Z,23.37
2016-07-04T00:54:46.364Z,23.38
2016-07-04T00:55:46.383Z,23.35
2016-07-04T00:56:46.410Z,23.38
2016-07-04T00:57:46.407Z,23.37
2016-07-04T00:58:46.402Z,23.34
2016-07-04T00:59:46.427Z,23.38
2016-07-04T01:00:46.430Z,23.34
2016-07-04T01:01:46.461Z,23.35
2016-07-04T01:02:46.454Z,23.28
2016-07-04T01:03:46.451Z,23.28
2016-07-04T01:04:46.459Z,23.32
2016-07-04T01:05:46.750Z,23.35
2016-07-04T01:06:46.474Z,23.38
2016-07-04T01:07:46.741Z,23.37
2016-07-04T01:08:46.492Z,23.35
2016-07-04T01:09:46.745Z,23.34
2016-07-04T01:10:46.523Z,23.35
2016-07-04T01:11:46.554Z,23.38
2016-07-04T01:12:46.547Z,23.35
2016-07-04T01:13:46.550Z,23.26
2016-07-04T01:14:46.564Z,23.24
2016-07-04T01:15:46.560Z,23.34
2016-07-04T01:16:46.567Z,23.26
2016-07-04T01:17:46.579Z,23.37
2016-07-04T01:18:46.587Z,23.28
2016-07-04T01:19:46.575Z,23.22
2016-07-04T01:20:46.616Z,23.18
2016-07-04T01:21:46.615Z,23.29
2016-07-04T01:22:46.634Z,23.29
2016-07-04T01:23:46.648Z,23.26
2016-07-04T01:24:46.646Z,23.22
2016-07-04T01:25:46.706Z,23.26
2016-07-04T01:26:46.654Z,23.28
2016-07-04T01:27:46.692Z,23.29
2016-07-04T01:28:46.682Z,23.21
2016-07-04T01:29:46.695Z,23.15
2016-07-04T01:30:46.685Z,23.29
2016-07-04T01:31:46.708Z,23.18
2016-07-04T01:32:46.706Z,23.16
2016-07-04T01:33:46.739Z,23.32
2016-07-04T01:34:46.721Z,23.28
2016-07-04T01:35:46.751Z,23.24
2016-07-04T01:36:46.757Z,23.22
2016-07-04T01:37:46.780Z,23.22
2016-07-04T01:38:46.756Z,23.28
2016-07-04T01:39:46.772Z,23.29
2016-07-04T01:40:46.777Z,23.19
2016-07-04T01:41:46.807Z,23.26
2016-07-04T01:42:46.789Z,23.28
2016-07-04T01:43:46.804Z,23.21
2016-07-04T01:44:46.814Z,23.28
2016-07-04T01:45:46.813Z,23.28
2016-07-04T01:46:46.845Z,23.28
2016-07-04T01:47:46.840Z,23.26
2016-07-04T01:48:46.832Z,23.16
2016-07-04T01:49:46.857Z,23.15
2016-07-04T01:50:46.881Z,23.28
2016-07-04T01:51:46.878Z,23.24
2016-07-04T01:52:46.882Z,23.28
2016-07-04T01:53:46.903Z,23.24
2016-07-04T01:54:46.904Z,23.25
2016-07-04T01:55:46.896Z,23.22
2016-07-04T01:56:46.924Z,23.22
2016-07-04T01:57:46.915Z,23.18
2016-07-04T01:58:46.917Z,23.18
2016-07-04T01:59:46.937Z,23.22
2016-07-04T02:00:46.955Z,23.18
2016-07-04T02:01:46.934Z,23.19
2016-07-04T02:02:46.984Z,23.25
2016-07-04T02:03:46.981Z,23.19
2016-07-04T02:04:46.982Z,23.18
2016-07-04T02:05:46.991Z,23.16
2016-07-04T02:06:47.011Z,23.19
2016-07-04T02:07:47.026Z,23.16
2016-07-04T02:08:47.618Z,23.22
2016-07-04T02:09:47.290Z,23.29
2016-07-04T02:10:47.256Z,23.15
2016-07-04T02:11:47.325Z,23.22
2016-07-04T02:12:47.082Z,23.24
2016-07-04T02:13:47.110Z,23.18
2016-07-04T02:14:47.217Z,23.15
2016-07-04T02:15:47.082Z,23.22
2016-07-04T02:16:47.111Z,23.21
2016-07-04T02:17:47.110Z,23.16
2016-07-04T02:18:47.099Z,23.21
2016-07-04T02:19:47.116Z,23.16
2016-07-04T02:20:47.126Z,23.21
2016-07-04T02:21:47.144Z,23.15
2016-07-04T02:22:47.147Z,23.14
2016-07-04T02:23:47.753Z,23.16
2016-07-04T02:24:47.166Z,23.16
2016-07-04T02:25:47.221Z,23.16
2016-07-04T02:26:47.184Z,23.15
2016-07-04T02:27:47.195Z,23.19
2016-07-04T02:28:47.196Z,23.12
2016-07-04T02:29:47.205Z,23.16
2016-07-04T02:30:47.224Z,23.24
2016-07-04T02:31:47.243Z,23.18
2016-07-04T02:32:47.223Z,23.18
2016-07-04T02:33:47.251Z,23.18
2016-07-04T02:34:47.251Z,23.18
2016-07-04T02:35:47.277Z,23.18
2016-07-04T02:36:47.258Z,23.24
2016-07-04T02:37:47.283Z,23.19
2016-07-04T02:38:47.293Z,23.19
2016-07-04T02:39:47.296Z,23.14
2016-07-04T02:40:47.302Z,23.19
2016-07-04T02:41:47.300Z,23.14
2016-07-04T02:42:47.335Z,23.16
2016-07-04T02:43:47.310Z,23.19
2016-07-04T02:44:47.323Z,23.19
2016-07-04T02:45:47.351Z,23.19
2016-07-04T02:46:47.364Z,23.19
2016-07-04T02:47:47.364Z,23.14
2016-07-04T02:48:47.363Z,23.14
2016-07-04T02:49:47.393Z,23.15
2016-07-04T02:50:47.384Z,23.14
2016-07-04T02:51:47.412Z,23.15
2016-07-04T02:52:47.396Z,23.14
2016-07-04T02:53:47.439Z,23.16
2016-07-04T02:54:47.443Z,23.15
2016-07-04T02:55:47.447Z,23.14
2016-07-04T02:56:47.459Z,23.07
2016-07-04T02:57:47.452Z,23.14
2016-07-04T02:58:47.440Z,23.18
2016-07-04T02:59:47.483Z,23.15
2016-07-04T03:00:47.482Z,23.15
2016-07-04T03:01:47.470Z,23.15
2016-07-04T03:02:47.487Z,23.1
2016-07-04T03:03:47.504Z,23.12
2016-07-04T03:04:47.528Z,23.24
2016-07-04T03:05:47.519Z,23.16
2016-07-04T03:06:47.553Z,23.16
2016-07-04T03:07:47.541Z,23.14
2016-07-04T03:08:47.545Z,23.18
2016-07-04T03:09:47.575Z,23.14
2016-07-04T03:10:47.560Z,23.12
2016-07-04T03:11:47.558Z,23.1
2016-07-04T03:12:47.585Z,23.12
2016-07-04T03:13:47.595Z,23.1
2016-07-04T03:14:47.588Z,23.18
2016-07-04T03:15:47.604Z,23.07
2016-07-04T03:16:47.599Z,23.12
2016-07-04T03:17:47.618Z,23.15
2016-07-04T03:18:47.610Z,23.09
2016-07-04T03:19:47.649Z,23.12
2016-07-04T03:20:47.655Z,23.1
2016-07-04T03:21:47.631Z,23.15
2016-07-04T03:22:47.652Z,23.1
2016-07-04T03:23:47.681Z,23.07
2016-07-04T03:24:47.690Z,23.14
2016-07-04T03:25:47.702Z,23.12
2016-07-04T03:26:47.688Z,23.09
2016-07-04T03:27:47.710Z,23.12
2016-07-04T03:28:47.712Z,23.06
2016-07-04T03:29:47.731Z,23.09
2016-07-04T03:30:47.728Z,23.15
2016-07-04T03:31:47.749Z,23.15
2016-07-04T03:32:47.762Z,23.09
2016-07-04T03:33:47.780Z,23.14
2016-07-04T03:34:47.779Z,23.16
2016-07-04T03:35:47.766Z,23.15
2016-07-04T03:36:47.776Z,23.09
2016-07-04T03:37:47.786Z,23.15
2016-07-04T03:38:47.796Z,23.12
2016-07-04T03:39:47.799Z,23.12
2016-07-04T03:40:47.840Z,23.19
2016-07-04T03:41:47.842Z,23.12
2016-07-04T03:42:47.842Z,23.1
2016-07-04T03:43:47.833Z,23.12
2016-07-04T03:44:47.852Z,23.12
2016-07-04T03:45:47.839Z,23.12
2016-07-04T03:46:47.871Z,23.07
2016-07-04T03:47:47.865Z,23.1
2016-07-04T03:48:48.517Z,23.12
2016-07-04T03:49:47.890Z,23.16
2016-07-04T03:50:47.887Z,23.1
2016-07-04T03:51:47.926Z,23.1
2016-07-04T03:52:47.918Z,23.18
2016-07-04T03:53:47.945Z,23.1
2016-07-04T03:54:47.931Z,23.12
2016-07-04T03:55:47.937Z,23.16
2016-07-04T03:56:47.944Z,23.14
2016-07-04T03:57:47.978Z,23.14
2016-07-04T03:58:47.959Z,23.15
2016-07-04T03:59:47.975Z,23.16
2016-07-04T04:00:48.012Z,23.15
2016-07-04T04:01:47.996Z,23.16
2016-07-04T04:02:48.019Z,23.12
2016-07-04T04:03:48.019Z,23.16
2016-07-04T04:04:48.038Z,23.15
2016-07-04T04:05:48.047Z,23.15
2016-07-04T04:06:48.043Z,23.16
2016-07-04T04:07:48.063Z,23.15
2016-07-04T04:08:48.046Z,23.12
2016-07-04T04:09:48.056Z,23.16
2016-07-04T04:10:48.262Z,23.14
2016-07-04T04:11:48.078Z,23.19
2016-07-04T04:12:48.108Z,23.1
2016-07-04T04:13:48.111Z,23.12
2016-07-04T04:14:48.110Z,23.12
2016-07-04T04:15:48.115Z,23.15
2016-07-04T04:16:48.133Z,23.12
2016-07-04T04:17:48.146Z,23.16
2016-07-04T04:18:48.160Z,23.12
2016-07-04T04:19:48.169Z,23.15
2016-07-04T04:20:48.178Z,23.12
2016-07-04T04:21:48.199Z,23.18
2016-07-04T04:22:48.179Z,23.18
2016-07-04T04:23:48.199Z,23.15
2016-07-04T04:24:48.199Z,23.16
2016-07-04T04:25:48.212Z,23.16
2016-07-04T04:26:48.203Z,23.15
2016-07-04T04:27:48.227Z,23.21
2016-07-04T04:28:48.243Z,23.18
2016-07-04T04:29:48.251Z,23.18
2016-07-04T04:30:48.252Z,23.14
2016-07-04T04:31:48.272Z,23.14
2016-07-04T04:32:48.299Z,23.16
2016-07-04T04:33:48.304Z,23.19
2016-07-04T04:34:48.313Z,23.1
2016-07-04T04:35:48.287Z,23.21
2016-07-04T04:36:48.297Z,23.12
2016-07-04T04:37:48.318Z,23.14
2016-07-04T04:38:48.329Z,23.16
2016-07-04T04:39:48.349Z,23.15
2016-07-04T04:40:48.331Z,23.12
2016-07-04T04:41:48.352Z,23.18
2016-07-04T04:42:48.369Z,23.15
2016-07-04T04:43:48.395Z,23.19
2016-07-04T04:44:48.380Z,23.18
2016-07-04T04:45:48.374Z,23.21
2016-07-04T04:46:48.401Z,23.18
2016-07-04T04:47:48.405Z,23.14
2016-07-04T04:48:48.416Z,23.14
2016-07-04T04:49:48.408Z,23.14
2016-07-04T04:50:48.442Z,23.18
2016-07-04T04:51:48.458Z,23.14
2016-07-04T04:52:48.448Z,23.18
2016-07-04T04:53:48.467Z,23.14
2016-07-04T04:54:48.466Z,23.18
2016-07-04T04:55:48.485Z,23.18
2016-07-04T04:56:48.502Z,23.22
2016-07-04T04:57:48.486Z,23.21
2016-07-04T04:58:49.095Z,23.16
2016-07-04T04:59:48.517Z,23.16
2016-07-04T05:00:48.513Z,23.15
2016-07-04T05:01:48.514Z,23.18
2016-07-04T05:02:48.531Z,23.19
2016-07-04T05:03:48.531Z,23.18
2016-07-04T05:04:48.536Z,23.16
2016-07-04T05:05:48.564Z,23.16
2016-07-04T05:06:48.562Z,23.14
2016-07-04T05:07:48.590Z,23.1
2016-07-04T05:08:48.583Z,23.19
2016-07-04T05:09:48.590Z,23.19
2016-07-04T05:10:48.600Z,23.14
2016-07-04T05:11:48.647Z,23.19
2016-07-04T05:12:48.647Z,23.19
2016-07-04T05:13:49.259Z,23.19
2016-07-04T05:14:48.646Z,23.18
2016-07-04T05:15:48.629Z,23.14
2016-07-04T05:16:48.648Z,23.21
2016-07-04T05:17:48.682Z,23.18
2016-07-04T05:18:48.671Z,23.14
2016-07-04T05:19:48.685Z,23.22
2016-07-04T05:20:48.678Z,23.21
2016-07-04T05:21:48.697Z,23.21
2016-07-04T05:22:48.711Z,23.22
2016-07-04T05:23:48.733Z,23.16
2016-07-04T05:24:48.734Z,23.26
2016-07-04T05:25:48.743Z,23.24
2016-07-04T05:26:48.749Z,23.18
2016-07-04T05:27:48.764Z,23.22
2016-07-04T05:28:48.765Z,23.19
2016-07-04T05:29:48.766Z,23.29
2016-07-04T05:30:48.767Z,23.28
2016-07-04T05:31:48.782Z,23.18
2016-07-04T05:32:48.807Z,23.22
2016-07-04T05:33:48.805Z,23.21
2016-07-04T05:34:48.784Z,23.24
2016-07-04T05:35:48.816Z,23.22
2016-07-04T05:36:49.446Z,23.21
2016-07-04T05:37:49.498Z,23.26
2016-07-04T05:38:52.718Z,23.22
2016-07-04T05:39:48.870Z,23.24
2016-07-04T05:40:48.902Z,23.32
2016-07-04T05:41:48.872Z,23.19
2016-07-04T05:42:48.862Z,23.21
2016-07-04T05:43:48.900Z,23.28
2016-07-04T05:44:48.889Z,23.24
2016-07-04T05:45:48.894Z,23.32
2016-07-04T05:46:48.905Z,23.26
2016-07-04T05:47:48.902Z,23.38
2016-07-04T05:48:48.921Z,23.28
2016-07-04T05:49:48.948Z,23.35
2016-07-04T05:50:48.928Z,23.37
2016-07-04T05:51:48.953Z,23.26
2016-07-04T05:52:48.957Z,23.35
2016-07-04T05:53:48.968Z,23.26
2016-07-04T05:54:48.963Z,23.37
2016-07-04T05:55:48.978Z,23.35
2016-07-04T05:56:49.003Z,23.35
2016-07-04T05:57:49.014Z,23.35
2016-07-04T05:58:49.024Z,23.35
2016-07-04T05:59:49.039Z,23.38
2016-07-04T06:00:49.022Z,23.35
2016-07-04T06:01:49.028Z,23.35
2016-07-04T06:02:49.067Z,23.37
2016-07-04T06:03:49.043Z,23.37
2016-07-04T06:04:49.076Z,23.34
2016-07-04T06:05:49.090Z,23.35
2016-07-04T06:06:49.093Z,23.37
2016-07-04T06:07:49.118Z,23.4
2016-07-04T06:08:49.097Z,23.35
2016-07-04T06:09:49.110Z,23.38
2016-07-04T06:10:49.126Z,23.37
2016-07-04T06:11:49.129Z,23.4
2016-07-04T06:12:49.123Z,23.35
2016-07-04T06:13:49.149Z,23.29
2016-07-04T06:14:49.133Z,23.34
2016-07-04T06:15:49.156Z,23.29
2016-07-04T06:16:49.168Z,23.4
2016-07-04T06:17:49.189Z,23.41
2016-07-04T06:18:49.178Z,23.37
2016-07-04T06:19:49.231Z,23.41
2016-07-04T06:20:49.214Z,23.37
2016-07-04T06:21:49.833Z,23.42
2016-07-04T06:22:49.233Z,23.42
2016-07-04T06:23:49.268Z,23.4
2016-07-04T06:24:49.246Z,23.37
2016-07-04T06:25:49.245Z,23.35
2016-07-04T06:26:49.254Z,23.22
2016-07-04T06:27:49.257Z,23.15
2016-07-04T06:28:49.288Z,23.12
2016-07-04T06:29:49.293Z,23.15
2016-07-04T06:30:49.314Z,23.14
2016-07-04T06:31:49.303Z,23.12
2016-07-04T06:32:49.304Z,23.1
2016-07-04T06:33:49.309Z,23.1
2016-07-04T06:34:49.337Z,23.09
2016-07-04T06:35:49.347Z,23.07
2016-07-04T06:36:49.363Z,23.07
2016-07-04T06:37:49.371Z,23.07
2016-07-04T06:38:49.373Z,23.07
2016-07-04T06:39:49.384Z,23.06
2016-07-04T06:40:49.374Z,22.99
2016-07-04T06:41:49.382Z,22.89
2016-07-04T06:42:49.398Z,22.75
2016-07-04T06:43:49.395Z,22.7
2016-07-04T06:44:49.435Z,22.71
2016-07-04T06:45:49.438Z,22.66
2016-07-04T06:46:49.440Z,22.44
2016-07-04T06:47:49.446Z,22.48
2016-07-04T06:48:49.459Z,22.49
2016-07-04T06:49:49.448Z,22.51
2016-07-04T06:50:49.465Z,22.55
2016-07-04T06:51:49.465Z,22.6
2016-07-04T06:52:49.478Z,22.54
2016-07-04T06:53:49.483Z,22.6
2016-07-04T06:54:49.489Z,22.54
2016-07-04T06:55:49.533Z,22.57
2016-07-04T06:56:49.514Z,22.55
2016-07-04T06:57:49.552Z,22.57
2016-07-04T06:58:49.550Z,22.55
2016-07-04T06:59:49.552Z,22.55
2016-07-04T07:00:49.544Z,22.49
2016-07-04T07:01:50.159Z,22.54
2016-07-04T07:02:49.664Z,22.54
2016-07-04T07:03:49.582Z,22.51
2016-07-04T07:04:49.592Z,22.59
2016-07-04T07:05:49.610Z,22.55
2016-07-04T07:06:49.602Z,22.57
2016-07-04T07:07:49.613Z,22.59
2016-07-04T07:08:49.622Z,22.6
2016-07-04T07:09:49.639Z,22.57
2016-07-04T07:10:49.636Z,22.54
2016-07-04T07:11:49.644Z,22.52
2016-07-04T07:12:49.659Z,22.54
2016-07-04T07:13:49.648Z,22.61
2016-07-04T07:14:49.662Z,22.61
2016-07-04T07:15:49.689Z,22.59
2016-07-04T07:16:50.302Z,22.75
2016-07-04T07:17:50.287Z,22.67
2016-07-04T07:18:49.709Z,22.69
2016-07-04T07:19:49.703Z,22.64
2016-07-04T07:20:49.716Z,22.59
2016-07-04T07:21:49.733Z,22.7
2016-07-04T07:22:49.811Z,22.57
2016-07-04T07:23:49.727Z,22.52
2016-07-04T07:24:49.732Z,22.51
2016-07-04T07:25:49.773Z,22.61
2016-07-04T07:26:50.535Z,22.6
2016-07-04T07:27:49.803Z,22.55
2016-07-04T07:28:49.787Z,22.54
2016-07-04T07:29:49.790Z,22.57
2016-07-04T07:30:49.804Z,22.44
2016-07-04T07:31:49.800Z,22.57
2016-07-04T07:32:49.826Z,22.63
2016-07-04T07:33:49.837Z,22.55
2016-07-04T07:34:49.833Z,22.57
2016-07-04T07:35:49.862Z,22.69
2016-07-04T07:36:49.848Z,22.7
2016-07-04T07:37:49.892Z,22.52
2016-07-04T07:38:49.877Z,22.51
2016-07-04T07:39:49.858Z,22.55
2016-07-04T07:40:50.479Z,22.55
2016-07-04T07:41:49.905Z,22.61
2016-07-04T07:42:49.897Z,22.6
2016-07-04T07:43:49.906Z,22.55
2016-07-04T07:44:49.918Z,22.57
2016-07-04T07:45:49.940Z,22.44
2016-07-04T07:46:49.924Z,22.44
2016-07-04T07:47:49.933Z,22.31
2016-07-04T07:48:49.984Z,22.38
2016-07-04T07:49:49.962Z,22.48
2016-07-04T07:50:49.967Z,22.52
2016-07-04T07:51:49.986Z,22.52
2016-07-04T07:52:49.968Z,22.45
2016-07-04T07:53:49.999Z,22.61
2016-07-04T07:54:50.009Z,22.64
2016-07-04T07:55:50.004Z,22.59
2016-07-04T07:56:50.009Z,22.69
2016-07-04T07:57:50.136Z,22.66
2016-07-04T07:58:50.038Z,22.51
2016-07-04T07:59:50.038Z,22.54
2016-07-04T08:00:50.062Z,22.6
2016-07-04T08:01:50.075Z,22.73
2016-07-04T08:02:50.200Z,22.7
2016-07-04T08:03:50.188Z,22.76
2016-07-04T08:04:50.151Z,22.7
2016-07-04T08:05:50.089Z,22.73
2016-07-04T08:06:50.097Z,22.75
2016-07-04T08:07:50.711Z,22.7
2016-07-04T08:08:50.197Z,22.71
2016-07-04T08:09:50.124Z,22.86
2016-07-04T08:10:50.123Z,22.78
2016-07-04T08:11:50.126Z,22.75
2016-07-04T08:12:50.146Z,22.84
2016-07-04T08:13:50.139Z,22.75
2016-07-04T08:14:50.185Z,22.7
2016-07-04T08:15:50.174Z,22.73
2016-07-04T08:16:50.427Z,22.7
2016-07-04T08:17:50.423Z,22.78
2016-07-04T08:18:50.808Z,22.75
2016-07-04T08:19:50.203Z,22.84
2016-07-04T08:20:50.229Z,22.7
2016-07-04T08:21:50.215Z,22.66
2016-07-04T08:22:50.295Z,22.66
2016-07-04T08:23:50.226Z,22.7
2016-07-04T08:24:50.237Z,22.79
2016-07-04T08:25:50.271Z,22.88
2016-07-04T08:26:50.402Z,22.86
2016-07-04T08:27:50.511Z,22.75
2016-07-04T08:28:50.266Z,22.85
2016-07-04T08:29:50.267Z,22.91
2016-07-04T08:30:50.304Z,22.92
2016-07-04T08:31:50.297Z,22.92
2016-07-04T08:32:50.313Z,22.85
2016-07-04T08:33:50.319Z,22.81
2016-07-04T08:34:50.327Z,22.89
2016-07-04T08:35:50.344Z,22.85
2016-07-04T08:36:50.364Z,22.94
2016-07-04T08:37:50.381Z,22.94
2016-07-04T08:38:50.377Z,22.92
2016-07-04T08:39:50.377Z,23.01
2016-07-04T08:40:50.422Z,23
2016-07-04T08:41:50.360Z,23
2016-07-04T08:42:50.387Z,22.99
2016-07-04T08:43:50.406Z,23.07
2016-07-04T08:44:58.962Z,23.04
2016-07-04T08:46:22.488Z,23.04
2016-07-04T08:46:50.439Z,23.03
2016-07-04T08:47:50.446Z,23.09
2016-07-04T08:48:50.442Z,23.09
2016-07-04T08:49:51.062Z,23.07
2016-07-04T08:51:00.788Z,23.03
2016-07-04T08:51:57.101Z,22.92
2016-07-04T08:53:22.549Z,22.99
2016-07-04T08:55:02.437Z,23.18
2016-07-04T08:56:23.792Z,23.18
2016-07-04T08:57:14.787Z,23.16
2016-07-04T08:57:50.497Z,23.14
2016-07-04T08:58:50.508Z,23.14
2016-07-04T08:59:50.686Z,23.09
2016-07-04T09:26:02.081Z,23.45
2016-07-04T09:27:02.139Z,23.44
2016-07-04T09:28:02.082Z,23.47
2016-07-04T09:29:02.159Z,23.53
2016-07-04T09:30:02.116Z,23.5
2016-07-04T09:31:02.138Z,23.55
2016-07-04T09:32:02.228Z,23.56
2016-07-04T09:33:02.422Z,23.56
2016-07-04T09:34:02.149Z,23.66
2016-07-04T09:35:02.337Z,23.71
2016-07-04T09:36:02.194Z,23.72
2016-07-04T09:37:02.168Z,23.74
2016-07-04T09:38:02.238Z,23.71
2016-07-04T09:39:02.214Z,23.74
2016-07-04T09:40:02.316Z,23.7
2016-07-04T09:41:02.222Z,23.74
2016-07-04T09:42:02.211Z,23.77
2016-07-04T09:43:02.204Z,23.74
2016-07-04T09:44:02.280Z,23.81
2016-07-04T09:45:02.252Z,23.75
2016-07-04T09:46:02.254Z,23.79
2016-07-04T09:47:02.505Z,23.79
2016-07-04T09:48:02.262Z,23.81
2016-07-04T09:49:02.281Z,23.82
2016-07-04T09:50:02.316Z,23.82
2016-07-04T09:51:02.312Z,23.85
2016-07-04T09:52:02.384Z,23.85
2016-07-04T09:53:02.313Z,23.87
2016-07-04T09:54:02.710Z,23.96
2016-07-04T09:55:02.374Z,23.93
2016-07-04T09:56:02.353Z,23.9
2016-07-04T09:57:02.649Z,24.08
2016-07-04T09:58:02.378Z,24
2016-07-04T09:59:02.993Z,24
2016-07-04T10:00:02.378Z,24.07
2016-07-04T10:01:02.642Z,24
2016-07-04T10:02:02.386Z,24.18
2016-07-04T10:03:02.551Z,24.08
2016-07-04T10:04:02.418Z,24.21
2016-07-04T10:05:02.405Z,24.08
2016-07-04T10:06:03.063Z,24.15
2016-07-04T10:07:02.445Z,24.26
2016-07-04T10:08:02.707Z,24.21
2016-07-04T10:09:02.463Z,24.14
2016-07-04T10:10:02.680Z,24.22
2016-07-04T10:11:02.500Z,24.24
2016-07-04T10:12:02.637Z,24.33
2016-07-04T10:13:02.529Z,24.26
2016-07-04T10:14:02.490Z,24.3
2016-07-04T10:15:02.516Z,24.24
2016-07-04T10:16:02.512Z,24.36
2016-07-04T10:17:02.512Z,24.3
2016-07-04T10:18:02.514Z,24.32
2016-07-04T10:19:02.532Z,24.27
2016-07-04T10:20:02.545Z,24.32
2016-07-04T10:21:02.557Z,24.34
2016-07-04T10:22:02.600Z,24.3
2016-07-04T10:23:02.569Z,24.39
2016-07-04T10:24:02.582Z,24.42
2016-07-04T10:25:02.598Z,24.39
2016-07-04T10:26:02.613Z,24.36
2016-07-04T10:27:02.607Z,24.37
2016-07-04T10:28:02.722Z,24.39
2016-07-04T10:29:02.627Z,24.39
2016-07-04T10:30:02.698Z,24.39
2016-07-04T10:31:02.633Z,24.4
2016-07-04T10:32:02.648Z,24.4
2016-07-04T10:33:02.672Z,24.39
2016-07-04T10:34:02.670Z,24.4
2016-07-04T10:35:02.656Z,24.4
2016-07-04T10:36:02.704Z,24.44
2016-07-04T10:37:02.730Z,24.45
2016-07-04T10:38:02.724Z,24.48
2016-07-04T10:39:02.714Z,24.45
2016-07-04T10:40:03.330Z,24.52
2016-07-04T10:41:02.750Z,24.54
2016-07-04T10:42:02.774Z,24.59
2016-07-04T10:43:02.762Z,24.55
2016-07-04T10:44:02.777Z,24.55
2016-07-04T10:45:03.387Z,24.66
2016-07-04T10:46:02.786Z,24.63
2016-07-04T10:47:02.787Z,24.61
2016-07-04T10:48:02.811Z,24.69
2016-07-04T10:49:02.824Z,24.67
2016-07-04T10:50:02.820Z,24.71
2016-07-04T10:51:02.843Z,24.71
2016-07-04T10:52:02.848Z,24.71
2016-07-04T10:53:02.858Z,24.7
2016-07-04T10:54:02.880Z,24.77
2016-07-04T10:55:02.881Z,24.77
2016-07-04T10:56:02.866Z,24.77
2016-07-04T10:57:02.908Z,24.77
2016-07-04T10:58:02.899Z,24.85
2016-07-04T10:59:02.908Z,24.82
2016-07-04T11:00:02.930Z,24.78
2016-07-04T11:01:02.903Z,24.8
2016-07-04T11:02:02.944Z,24.77
2016-07-04T11:03:02.967Z,24.89
2016-07-04T11:04:02.966Z,24.87
2016-07-04T11:05:02.961Z,24.86
2016-07-04T11:06:02.991Z,24.77
2016-07-04T11:07:02.988Z,24.83
2016-07-04T11:08:02.999Z,24.75
2016-07-04T11:09:02.991Z,24.78
2016-07-04T11:10:03.009Z,24.89
2016-07-04T11:11:03.032Z,24.78
2016-07-04T11:12:03.055Z,24.78
2016-07-04T11:13:03.056Z,24.87
2016-07-04T11:14:03.058Z,24.85
2016-07-04T11:15:03.063Z,24.9
2016-07-04T11:16:03.081Z,24.92
2016-07-04T11:17:03.098Z,24.89
2016-07-04T11:18:03.112Z,24.92
2016-07-04T11:19:03.112Z,24.92
2016-07-04T11:20:03.105Z,24.96
2016-07-04T11:21:03.130Z,24.92
2016-07-04T11:22:03.143Z,24.92
2016-07-04T11:23:03.150Z,25.02
2016-07-04T11:24:03.144Z,25.02
2016-07-04T11:25:03.773Z,25.07
2016-07-04T11:26:03.188Z,25.05
2016-07-04T11:27:03.209Z,25.09
2016-07-04T11:28:03.171Z,25.09
2016-07-04T11:29:03.207Z,25.08
2016-07-04T11:30:03.205Z,25.12
2016-07-04T11:31:03.216Z,25.09
2016-07-04T11:32:03.213Z,25.09
2016-07-04T11:33:03.230Z,25.23
2016-07-04T11:34:03.260Z,25.14
2016-07-04T11:35:03.251Z,25.2
2016-07-04T11:36:03.256Z,25.15
2016-07-04T11:37:03.891Z,25.2
2016-07-04T11:38:03.905Z,25.17
2016-07-04T11:39:03.292Z,25.15
2016-07-04T11:40:03.298Z,25.2
2016-07-04T11:41:03.339Z,25.15
2016-07-04T11:42:03.324Z,25.23
2016-07-04T11:43:03.334Z,25.15
2016-07-04T11:44:03.339Z,25.14
2016-07-04T11:45:03.344Z,25.17
2016-07-04T11:46:03.373Z,25.23
2016-07-04T11:47:03.386Z,25.22
2016-07-04T11:48:03.357Z,25.24
2016-07-04T11:49:03.394Z,25.2
2016-07-04T11:50:03.392Z,25.2
2016-07-04T11:51:03.413Z,25.23
2016-07-04T11:52:03.427Z,25.29
2016-07-04T11:53:03.437Z,25.29
2016-07-04T11:54:03.455Z,25.26
2016-07-04T11:55:03.434Z,25.29
2016-07-04T11:56:03.453Z,25.32
2016-07-04T11:57:03.490Z,25.29
2016-07-04T11:58:03.472Z,25.33
2016-07-04T11:59:04.330Z,25.34
2016-07-04T12:00:03.483Z,25.38
2016-07-04T12:01:03.490Z,25.34
2016-07-04T12:02:03.541Z,25.41
2016-07-04T12:03:03.526Z,25.44
2016-07-04T12:04:03.528Z,25.49
2016-07-04T12:05:03.558Z,25.47
2016-07-04T12:06:03.544Z,25.47
2016-07-04T12:07:03.565Z,25.47
2016-07-04T12:08:03.567Z,25.47
2016-07-04T12:09:03.599Z,25.41
2016-07-04T12:10:03.592Z,25.52
2016-07-04T12:11:03.944Z,25.41
2016-07-04T12:12:03.621Z,25.47
2016-07-04T12:13:04.216Z,25.54
2016-07-04T12:14:03.627Z,25.52
2016-07-04T12:15:03.649Z,25.59
2016-07-04T12:16:03.655Z,25.57
2016-07-04T12:17:03.964Z,25.56
2016-07-04T12:18:03.669Z,25.56
2016-07-04T12:19:04.435Z,25.64
2016-07-04T12:20:03.991Z,25.67
2016-07-04T12:21:03.911Z,25.67
2016-07-04T12:22:03.699Z,25.64
2016-07-04T12:23:03.715Z,25.75
2016-07-04T12:24:03.725Z,25.74
2016-07-04T12:25:03.725Z,25.75
2016-07-04T12:26:03.735Z,25.71
2016-07-04T12:27:05.000Z,25.67
2016-07-04T12:28:03.771Z,25.67
2016-07-04T12:29:03.763Z,25.71
2016-07-04T12:30:04.095Z,25.69
2016-07-04T12:31:03.801Z,25.7
2016-07-04T12:32:03.837Z,25.69
2016-07-04T12:33:04.189Z,25.75
2016-07-04T12:34:03.827Z,25.67
2016-07-04T12:35:03.820Z,25.69
2016-07-04T12:36:03.830Z,25.75
2016-07-04T12:37:04.075Z,25.71
2016-07-04T12:38:03.870Z,25.66
2016-07-04T12:39:03.873Z,25.78
2016-07-04T12:40:03.895Z,25.69
2016-07-04T12:41:03.884Z,25.7
2016-07-04T12:42:03.993Z,25.66
2016-07-04T12:43:04.513Z,25.63
2016-07-04T12:44:03.921Z,25.52
2016-07-04T12:45:03.948Z,25.66
2016-07-04T12:46:18.829Z,25.74
2016-07-04T12:47:03.967Z,25.71
2016-07-04T12:48:04.085Z,25.71
2016-07-04T12:49:03.997Z,25.63
2016-07-04T12:50:04.102Z,25.78
2016-07-04T12:51:03.992Z,25.64
2016-07-04T12:52:18.899Z,25.75
2016-07-04T12:53:04.618Z,25.78
2016-07-04T12:54:19.539Z,25.81
2016-07-04T12:55:04.045Z,25.75
2016-07-04T12:56:04.411Z,25.71
2016-07-04T12:57:04.418Z,25.67
2016-07-04T12:58:04.062Z,25.71
2016-07-04T12:59:04.290Z,25.7
2016-07-04T13:00:04.102Z,25.75
2016-07-04T13:01:04.100Z,25.75
2016-07-04T13:02:04.451Z,25.64
2016-07-04T13:03:04.141Z,25.75
2016-07-04T13:04:04.272Z,25.66
2016-07-04T13:05:04.345Z,25.74
2016-07-04T13:06:04.139Z,25.67
2016-07-04T13:07:04.220Z,25.67
2016-07-04T13:08:04.170Z,25.69
2016-07-04T13:09:04.174Z,25.56
2016-07-04T13:10:04.193Z,25.52
2016-07-04T13:11:04.200Z,25.64
2016-07-04T13:12:04.467Z,25.78
2016-07-04T13:13:04.271Z,25.79
2016-07-04T13:14:04.232Z,25.71
2016-07-04T13:15:04.258Z,25.74
2016-07-04T13:16:04.506Z,25.74
2016-07-04T13:17:04.274Z,25.67
2016-07-04T13:18:04.589Z,25.79
2016-07-04T13:19:19.181Z,25.71
2016-07-04T13:20:04.293Z,25.71
2016-07-04T13:21:04.302Z,25.69
2016-07-04T13:22:04.502Z,25.7